createdAt,value
2018-02-17T00:00:25.282Z,20.80
2018-02-17T00:01:25.276Z,18.30
2018-02-17T00:02:25.220Z,18.60
2018-02-17T00:03:25.191Z,19.20
2018-02-17T00:04:25.127Z,16.60
2018-02-17T00:05:25.083Z,15.50
2018-02-17T00:06:25.070Z,15.10
2018-02-17T00:07:25.013Z,14.70
2018-02-17T00:08:24.954Z,15.60
2018-02-17T00:09:24.919Z,14.90
2018-02-17T00:10:24.922Z,15.80
2018-02-17T00:11:24.834Z,14.00
2018-02-17T00:12:24.819Z,14.30
2018-02-17T00:13:24.759Z,14.40
2018-02-17T00:14:24.702Z,12.90
2018-02-17T00:15:24.672Z,13.60
2018-02-17T00:16:24.617Z,12.80
2018-02-17T00:17:24.661Z,12.60
2018-02-17T00:18:24.539Z,13.00
2018-02-17T00:19:24.518Z,12.50
2018-02-17T00:20:24.487Z,11.80
2018-02-17T00:21:24.416Z,11.60
2018-02-17T00:22:24.397Z,11.60
2018-02-17T00:23:24.365Z,12.10
2018-02-17T00:24:24.306Z,12.60
2018-02-17T00:25:24.244Z,12.60
2018-02-17T00:26:24.241Z,12.00
2018-02-17T00:27:24.181Z,11.80
2018-02-17T00:28:24.152Z,12.50
2018-02-17T00:29:24.102Z,11.30
2018-02-17T00:30:24.060Z,12.30
2018-02-17T00:31:24.006Z,11.90
2018-02-17T00:32:23.953Z,12.50
2018-02-17T00:33:23.968Z,11.60
2018-02-17T00:34:23.882Z,12.20
2018-02-17T00:35:23.846Z,13.80
2018-02-17T00:36:23.808Z,12.40
2018-02-17T00:37:23.760Z,13.90
2018-02-17T00:38:23.721Z,13.30
2018-02-17T00:39:23.668Z,11.90
2018-02-17T00:40:23.642Z,13.70
2018-02-17T00:41:23.598Z,13.70
2018-02-17T00:42:23.548Z,13.50
2018-02-17T00:43:23.510Z,13.00
2018-02-17T00:44:23.467Z,12.50
2018-02-17T00:45:23.420Z,13.50
2018-02-17T00:46:23.395Z,13.60
2018-02-17T00:47:23.335Z,12.90
2018-02-17T00:48:23.300Z,13.20
2018-02-17T00:49:23.259Z,13.70
2018-02-17T00:50:23.224Z,13.50
2018-02-17T00:51:23.173Z,12.70
2018-02-17T00:52:23.169Z,13.50
2018-02-17T00:53:23.105Z,12.80
2018-02-17T00:54:23.058Z,13.10
2018-02-17T00:55:23.017Z,12.60
2018-02-17T00:56:23.006Z,13.30
2018-02-17T00:57:22.947Z,13.80
2018-02-17T00:58:22.881Z,13.50
2018-02-17T00:59:22.849Z,13.30
2018-02-17T01:00:22.797Z,13.80
2018-02-17T01:01:22.774Z,14.00
2018-02-17T01:02:22.719Z,14.00
2018-02-17T01:03:22.725Z,14.00
2018-02-17T01:04:22.635Z,14.50
2018-02-17T01:05:22.590Z,13.90
2018-02-17T01:06:22.576Z,14.90
2018-02-17T01:07:22.514Z,15.40
2018-02-17T01:08:22.505Z,15.50
2018-02-17T01:09:22.444Z,16.80
2018-02-17T01:10:22.382Z,16.30
2018-02-17T01:11:22.898Z,16.80
2018-02-17T01:12:22.311Z,16.60
2018-02-17T01:13:22.258Z,16.10
2018-02-17T01:14:22.218Z,15.70
2018-02-17T01:15:22.173Z,15.00
2018-02-17T01:16:22.216Z,16.40
2018-02-17T01:17:22.098Z,15.90
2018-02-17T01:18:22.085Z,16.00
2018-02-17T01:19:22.052Z,16.00
2018-02-17T01:20:21.985Z,16.50
2018-02-17T01:21:21.977Z,16.10
2018-02-17T01:22:21.890Z,17.00
2018-02-17T01:23:21.860Z,17.40
2018-02-17T01:24:21.800Z,15.20
2018-02-17T01:25:21.778Z,16.80
2018-02-17T01:26:21.750Z,16.30
2018-02-17T01:27:21.685Z,16.60
2018-02-17T01:28:21.637Z,16.30
2018-02-17T01:29:21.626Z,15.40
2018-02-17T01:30:21.554Z,16.90
2018-02-17T01:31:21.538Z,16.20
2018-02-17T01:32:21.466Z,16.00
2018-02-17T01:33:21.428Z,15.60
2018-02-17T01:34:21.396Z,15.80
2018-02-17T01:35:21.359Z,16.30
2018-02-17T01:36:21.302Z,16.20
2018-02-17T01:37:21.261Z,16.00
2018-02-17T01:38:21.228Z,16.60
2018-02-17T01:39:21.200Z,17.90
2018-02-17T01:40:21.158Z,15.40
2018-02-17T01:41:21.131Z,16.50
2018-02-17T01:42:21.084Z,16.20
2018-02-17T01:43:21.045Z,16.70
2018-02-17T01:44:20.992Z,17.30
2018-02-17T01:45:20.938Z,16.60
2018-02-17T01:46:20.901Z,15.40
2018-02-17T01:47:20.849Z,16.70
2018-02-17T01:48:20.818Z,17.60
2018-02-17T01:49:20.776Z,16.30
2018-02-17T01:50:20.728Z,15.80
2018-02-17T01:51:20.693Z,16.30
2018-02-17T01:52:20.639Z,16.30
2018-02-17T01:53:20.591Z,16.90
2018-02-17T01:54:20.556Z,15.80
2018-02-17T01:55:20.510Z,15.10
2018-02-17T01:56:20.525Z,16.40
2018-02-17T01:57:20.429Z,15.30
2018-02-17T01:58:20.390Z,15.90
2018-02-17T01:59:20.340Z,16.20
2018-02-17T02:00:20.302Z,16.20
2018-02-17T02:01:20.257Z,15.40
2018-02-17T02:02:20.227Z,16.10
2018-02-17T02:03:20.183Z,16.20
2018-02-17T02:04:20.150Z,15.00
2018-02-17T02:05:20.122Z,16.30
2018-02-17T02:06:20.064Z,16.60
2018-02-17T02:07:20.009Z,15.10
2018-02-17T02:08:19.981Z,15.70
2018-02-17T02:09:20.053Z,16.10
2018-02-17T02:10:19.917Z,16.60
2018-02-17T02:11:19.863Z,16.30
2018-02-17T02:12:19.840Z,15.50
2018-02-17T02:13:19.770Z,15.60
2018-02-17T02:14:19.724Z,16.90
2018-02-17T02:15:19.685Z,15.90
2018-02-17T02:16:19.634Z,16.30
2018-02-17T02:17:19.591Z,15.20
2018-02-17T02:18:19.560Z,15.40
2018-02-17T02:19:19.553Z,15.50
2018-02-17T02:20:19.474Z,15.40
2018-02-17T02:21:19.434Z,15.60
2018-02-17T02:22:19.382Z,15.50
2018-02-17T02:23:19.337Z,16.00
2018-02-17T02:24:19.313Z,15.80
2018-02-17T02:25:19.264Z,16.00
2018-02-17T02:26:19.255Z,16.10
2018-02-17T02:27:19.168Z,17.20
2018-02-17T02:28:19.138Z,17.70
2018-02-17T02:29:19.088Z,17.30
2018-02-17T02:30:19.071Z,16.60
2018-02-17T02:31:19.003Z,16.20
2018-02-17T02:32:18.963Z,16.90
2018-02-17T02:33:18.924Z,17.80
2018-02-17T02:34:18.908Z,16.50
2018-02-17T02:35:18.840Z,17.90
2018-02-17T02:36:18.801Z,17.40
2018-02-17T02:37:18.767Z,16.60
2018-02-17T02:38:18.715Z,17.30
2018-02-17T02:39:18.682Z,19.10
2018-02-17T02:40:18.660Z,17.80
2018-02-17T02:41:18.617Z,17.00
2018-02-17T02:42:18.579Z,17.10
2018-02-17T02:43:18.517Z,17.10
2018-02-17T02:44:18.486Z,17.30
2018-02-17T02:45:18.420Z,17.80
2018-02-17T02:46:18.389Z,17.80
2018-02-17T02:47:18.343Z,18.40
2018-02-17T02:48:18.290Z,18.00
2018-02-17T02:49:18.279Z,17.10
2018-02-17T02:50:18.223Z,17.20
2018-02-17T02:51:18.189Z,16.50
2018-02-17T02:52:18.145Z,17.10
2018-02-17T02:53:18.083Z,16.90
2018-02-17T02:54:18.042Z,16.20
2018-02-17T02:55:18.020Z,16.70
2018-02-17T02:56:17.972Z,17.40
2018-02-17T02:57:17.914Z,16.60
2018-02-17T02:58:18.015Z,17.80
2018-02-17T02:59:17.836Z,17.10
2018-02-17T03:00:17.800Z,18.60
2018-02-17T03:01:17.757Z,18.00
2018-02-17T03:02:17.751Z,19.50
2018-02-17T03:03:17.670Z,18.20
2018-02-17T03:04:17.645Z,17.60
2018-02-17T03:05:17.624Z,18.40
2018-02-17T03:06:17.539Z,19.40
2018-02-17T03:07:17.528Z,18.20
2018-02-17T03:08:17.455Z,18.90
2018-02-17T03:09:17.421Z,19.60
2018-02-17T03:10:17.371Z,19.10
2018-02-17T03:11:17.327Z,18.30
2018-02-17T03:12:17.294Z,19.40
2018-02-17T03:13:17.244Z,19.30
2018-02-17T03:14:17.222Z,16.60
2018-02-17T03:15:17.172Z,18.30
2018-02-17T03:16:17.174Z,17.80
2018-02-17T03:17:17.084Z,17.40
2018-02-17T03:18:17.051Z,17.90
2018-02-17T03:19:17.001Z,17.40
2018-02-17T03:20:16.962Z,17.40
2018-02-17T03:21:16.945Z,18.50
2018-02-17T03:22:16.872Z,17.50
2018-02-17T03:23:16.836Z,18.90
2018-02-17T03:24:16.787Z,17.60
2018-02-17T03:25:16.749Z,18.60
2018-02-17T03:26:16.723Z,19.40
2018-02-17T03:27:16.670Z,18.30
2018-02-17T03:28:16.617Z,18.50
2018-02-17T03:29:16.626Z,19.10
2018-02-17T03:30:16.534Z,18.50
2018-02-17T03:31:16.514Z,19.60
2018-02-17T03:32:16.481Z,19.00
2018-02-17T03:33:16.414Z,19.50
2018-02-17T03:34:16.371Z,19.70
2018-02-17T03:35:16.323Z,19.40
2018-02-17T03:36:16.281Z,18.80
2018-02-17T03:37:16.258Z,18.70
2018-02-17T03:38:16.210Z,19.60
2018-02-17T03:39:16.174Z,20.50
2018-02-17T03:40:16.117Z,20.00
2018-02-17T03:41:16.078Z,20.50
2018-02-17T03:42:16.060Z,20.20
2018-02-17T03:43:15.993Z,21.20
2018-02-17T03:44:15.956Z,20.50
2018-02-17T03:45:15.910Z,20.80
2018-02-17T03:46:15.863Z,21.40
2018-02-17T03:47:15.874Z,20.60
2018-02-17T03:48:15.840Z,21.90
2018-02-17T03:49:15.762Z,21.00
2018-02-17T03:50:15.719Z,20.70
2018-02-17T03:51:15.650Z,21.30
2018-02-17T03:52:15.609Z,21.90
2018-02-17T03:53:15.579Z,22.30
2018-02-17T03:54:15.539Z,20.60
2018-02-17T03:55:15.494Z,21.20
2018-02-17T03:56:15.484Z,22.30
2018-02-17T03:57:15.410Z,22.50
2018-02-17T03:58:15.386Z,22.30
2018-02-17T03:59:15.342Z,23.00
2018-02-17T04:00:15.291Z,22.60
2018-02-17T04:01:15.262Z,23.40
2018-02-17T04:02:15.228Z,22.30
2018-02-17T04:03:15.162Z,23.60
2018-02-17T04:04:15.105Z,24.50
2018-02-17T04:05:15.069Z,24.70
2018-02-17T04:06:15.057Z,23.90
2018-02-17T04:07:14.986Z,23.70
2018-02-17T04:08:14.940Z,25.10
2018-02-17T04:09:14.937Z,23.50
2018-02-17T04:10:14.881Z,25.20
2018-02-17T04:11:14.811Z,24.20
2018-02-17T04:12:14.791Z,24.00
2018-02-17T04:13:14.741Z,24.90
2018-02-17T04:14:14.683Z,24.40
2018-02-17T04:15:14.646Z,25.00
2018-02-17T04:16:14.604Z,24.30
2018-02-17T04:17:14.586Z,24.00
2018-02-17T04:18:14.548Z,24.50
2018-02-17T04:19:14.525Z,25.90
2018-02-17T04:20:14.434Z,24.40
2018-02-17T04:21:14.409Z,25.90
2018-02-17T04:22:14.359Z,25.40
2018-02-17T04:23:14.356Z,24.70
2018-02-17T04:24:14.262Z,24.70
2018-02-17T04:25:14.247Z,25.50
2018-02-17T04:26:14.239Z,26.20
2018-02-17T04:27:14.155Z,25.60
2018-02-17T04:28:14.116Z,24.00
2018-02-17T04:29:14.103Z,23.50
2018-02-17T04:30:14.043Z,25.30
2018-02-17T04:31:13.990Z,23.60
2018-02-17T04:32:13.928Z,23.00
2018-02-17T04:33:13.901Z,23.50
2018-02-17T04:34:13.864Z,22.30
2018-02-17T04:35:13.816Z,22.80
2018-02-17T04:36:13.767Z,21.80
2018-02-17T04:37:13.727Z,21.90
2018-02-17T04:38:13.702Z,21.50
2018-02-17T04:39:13.664Z,21.70
2018-02-17T04:40:13.609Z,22.20
2018-02-17T04:41:13.581Z,22.50
2018-02-17T04:42:13.516Z,22.60
2018-02-17T04:43:13.508Z,21.70
2018-02-17T04:44:13.429Z,21.60
2018-02-17T04:45:13.423Z,20.30
2018-02-17T04:46:13.371Z,21.90
2018-02-17T04:47:13.303Z,21.70
2018-02-17T04:48:13.300Z,21.70
2018-02-17T04:49:13.224Z,20.70
2018-02-17T04:50:13.179Z,21.70
2018-02-17T04:51:13.150Z,20.30
2018-02-17T04:52:13.117Z,21.40
2018-02-17T04:53:13.054Z,22.00
2018-02-17T04:54:13.014Z,21.50
2018-02-17T04:55:12.983Z,20.80
2018-02-17T04:56:12.970Z,21.10
2018-02-17T04:57:12.886Z,22.20
2018-02-17T04:58:12.849Z,22.90
2018-02-17T04:59:12.839Z,22.10
2018-02-17T05:00:12.784Z,22.10
2018-02-17T05:01:12.720Z,21.80
2018-02-17T05:02:12.679Z,22.50
2018-02-17T05:03:12.639Z,22.60
2018-02-17T05:04:12.597Z,23.10
2018-02-17T05:05:12.553Z,20.80
2018-02-17T05:06:12.521Z,22.20
2018-02-17T05:07:12.507Z,21.80
2018-02-17T05:08:12.448Z,22.20
2018-02-17T05:09:12.384Z,21.50
2018-02-17T05:10:12.876Z,22.10
2018-02-17T05:11:12.875Z,20.90
2018-02-17T05:12:12.315Z,20.60
2018-02-17T05:13:12.878Z,21.30
2018-02-17T05:14:12.182Z,20.50
2018-02-17T05:15:12.136Z,18.50
2018-02-17T05:16:12.097Z,19.80
2018-02-17T05:17:12.065Z,19.80
2018-02-17T05:18:12.023Z,19.90
2018-02-17T05:19:12.003Z,20.00
2018-02-17T05:20:11.959Z,19.40
2018-02-17T05:21:11.884Z,18.30
2018-02-17T05:22:11.869Z,18.10
2018-02-17T05:23:11.797Z,19.30
2018-02-17T05:24:11.813Z,18.70
2018-02-17T05:25:11.714Z,17.50
2018-02-17T05:26:11.693Z,17.80
2018-02-17T05:27:11.638Z,18.70
2018-02-17T05:28:11.594Z,18.30
2018-02-17T05:29:11.557Z,19.00
2018-02-17T05:30:11.529Z,18.40
2018-02-17T05:31:11.463Z,17.50
2018-02-17T05:32:11.435Z,18.70
2018-02-17T05:33:11.423Z,19.10
2018-02-17T05:34:11.358Z,19.00
2018-02-17T05:35:11.441Z,18.90
2018-02-17T05:36:11.275Z,18.30
2018-02-17T05:37:11.215Z,17.90
2018-02-17T05:38:11.193Z,18.30
2018-02-17T05:39:11.139Z,18.10
2018-02-17T05:40:11.118Z,17.40
2018-02-17T05:41:11.086Z,19.30
2018-02-17T05:42:11.008Z,17.80
2018-02-17T05:43:10.971Z,17.60
2018-02-17T05:44:10.945Z,17.20
2018-02-17T05:45:10.880Z,18.30
2018-02-17T05:46:10.838Z,16.30
2018-02-17T05:47:10.799Z,18.20
2018-02-17T05:48:10.788Z,16.80
2018-02-17T05:49:10.727Z,19.00
2018-02-17T05:50:10.702Z,17.30
2018-02-17T05:51:10.645Z,17.20
2018-02-17T05:52:10.587Z,17.90
2018-02-17T05:53:10.553Z,17.00
2018-02-17T05:54:10.507Z,18.00
2018-02-17T05:55:10.476Z,17.30
2018-02-17T05:56:10.502Z,17.90
2018-02-17T05:57:10.418Z,17.40
2018-02-17T05:58:10.372Z,18.10
2018-02-17T05:59:10.766Z,17.20
2018-02-17T06:00:10.280Z,16.50
2018-02-17T06:01:10.251Z,17.60
2018-02-17T06:02:10.204Z,17.20
2018-02-17T06:03:10.147Z,16.90
2018-02-17T06:04:10.117Z,16.30
2018-02-17T06:05:10.053Z,16.90
2018-02-17T06:06:10.005Z,17.60
2018-02-17T06:07:09.971Z,17.60
2018-02-17T06:08:09.929Z,17.10
2018-02-17T06:09:09.878Z,16.90
2018-02-17T06:10:09.836Z,16.90
2018-02-17T06:11:09.795Z,16.90
2018-02-17T06:12:09.771Z,16.50
2018-02-17T06:13:09.721Z,16.80
2018-02-17T06:14:09.693Z,16.70
2018-02-17T06:15:09.628Z,17.30
2018-02-17T06:16:09.588Z,17.00
2018-02-17T06:17:09.584Z,16.90
2018-02-17T06:18:09.503Z,18.10
2018-02-17T06:19:09.461Z,17.50
2018-02-17T06:20:09.420Z,17.30
2018-02-17T06:21:09.374Z,17.80
2018-02-17T06:22:09.336Z,17.00
2018-02-17T06:23:09.353Z,16.50
2018-02-17T06:24:09.257Z,17.60
2018-02-17T06:25:09.206Z,16.90
2018-02-17T06:26:09.178Z,17.10
2018-02-17T06:27:09.123Z,16.20
2018-02-17T06:28:09.082Z,16.80
2018-02-17T06:29:09.041Z,16.40
2018-02-17T06:30:09.003Z,16.50
2018-02-17T06:31:08.988Z,16.60
2018-02-17T06:32:08.932Z,15.70
2018-02-17T06:33:08.879Z,15.60
2018-02-17T06:34:08.833Z,16.30
2018-02-17T06:35:08.803Z,16.20
2018-02-17T06:36:08.794Z,16.30
2018-02-17T06:37:08.714Z,16.20
2018-02-17T06:38:08.687Z,16.00
2018-02-17T06:39:08.627Z,15.70
2018-02-17T06:40:08.582Z,16.40
2018-02-17T06:41:08.589Z,15.80
2018-02-17T06:42:08.517Z,17.00
2018-02-17T06:43:08.483Z,17.70
2018-02-17T06:44:08.450Z,16.10
2018-02-17T06:45:08.373Z,16.00
2018-02-17T06:46:08.375Z,15.70
2018-02-17T06:47:08.293Z,16.40
2018-02-17T06:48:08.258Z,16.30
2018-02-17T06:49:08.218Z,16.40
2018-02-17T06:50:08.192Z,16.80
2018-02-17T06:51:08.176Z,16.10
2018-02-17T06:52:08.088Z,16.10
2018-02-17T06:53:08.049Z,15.40
2018-02-17T06:54:08.005Z,16.10
2018-02-17T06:55:07.970Z,16.60
2018-02-17T06:56:07.922Z,14.20
2018-02-17T06:57:07.878Z,14.60
2018-02-17T06:58:07.853Z,16.40
2018-02-17T06:59:07.861Z,14.90
2018-02-17T07:00:07.792Z,15.50
2018-02-17T07:01:07.834Z,15.80
2018-02-17T07:02:07.718Z,15.30
2018-02-17T07:03:07.649Z,14.80
2018-02-17T07:04:07.647Z,15.50
2018-02-17T07:05:07.560Z,16.50
2018-02-17T07:06:07.546Z,15.20
2018-02-17T07:07:07.485Z,15.20
2018-02-17T07:08:07.431Z,15.20
2018-02-17T07:09:07.389Z,14.80
2018-02-17T07:10:07.338Z,16.20
2018-02-17T07:11:07.330Z,15.50
2018-02-17T07:12:07.305Z,16.60
2018-02-17T07:13:07.280Z,15.80
2018-02-17T07:14:07.288Z,15.70
2018-02-17T07:15:07.131Z,14.20
2018-02-17T07:16:07.093Z,15.30
2018-02-17T07:17:07.052Z,14.50
2018-02-17T07:18:07.011Z,15.80
2018-02-17T07:19:06.968Z,15.50
2018-02-17T07:20:06.926Z,16.00
2018-02-17T07:21:06.886Z,16.20
2018-02-17T07:22:06.843Z,16.10
2018-02-17T07:23:06.805Z,16.70
2018-02-17T07:24:06.765Z,16.50
2018-02-17T07:25:06.723Z,16.90
2018-02-17T07:26:06.684Z,16.10
2018-02-17T07:27:06.639Z,15.40
2018-02-17T07:28:06.612Z,16.30
2018-02-17T07:29:06.556Z,17.30
2018-02-17T07:30:06.512Z,16.70
2018-02-17T07:31:06.478Z,16.90
2018-02-17T07:32:06.435Z,16.50
2018-02-17T07:33:06.392Z,17.10
2018-02-17T07:34:06.349Z,17.20
2018-02-17T07:35:06.311Z,16.30
2018-02-17T07:36:06.271Z,16.50
2018-02-17T07:37:06.226Z,16.70
2018-02-17T07:38:06.184Z,16.60
2018-02-17T07:39:06.143Z,16.20
2018-02-17T07:40:06.103Z,16.10
2018-02-17T07:41:06.065Z,15.70
2018-02-17T07:42:06.023Z,16.50
2018-02-17T07:43:05.981Z,16.90
2018-02-17T07:44:05.937Z,15.20
2018-02-17T07:45:05.901Z,15.70
2018-02-17T07:46:05.864Z,16.20
2018-02-17T07:47:05.814Z,15.40
2018-02-17T07:48:05.776Z,15.40
2018-02-17T07:49:05.737Z,15.90
2018-02-17T07:50:05.696Z,16.50
2018-02-17T07:51:05.655Z,14.60
2018-02-17T07:52:05.610Z,15.50
2018-02-17T07:53:05.570Z,14.90
2018-02-17T07:54:05.539Z,15.10
2018-02-17T07:55:05.488Z,15.70
2018-02-17T07:56:05.451Z,16.10
2018-02-17T07:57:05.410Z,15.10
2018-02-17T07:58:05.364Z,15.00
2018-02-17T07:59:05.322Z,15.80
2018-02-17T08:00:05.307Z,16.20
2018-02-17T08:01:05.241Z,16.10
2018-02-17T08:02:05.202Z,16.80
2018-02-17T08:03:05.161Z,16.60
2018-02-17T08:04:05.124Z,15.90
2018-02-17T08:05:05.086Z,16.30
2018-02-17T08:06:05.038Z,17.10
2018-02-17T08:07:04.998Z,16.20
2018-02-17T08:08:04.956Z,16.70
2018-02-17T08:09:04.918Z,16.70
2018-02-17T08:10:04.881Z,16.50
2018-02-17T08:11:04.835Z,17.00
2018-02-17T08:12:04.794Z,16.50
2018-02-17T08:13:04.757Z,16.10
2018-02-17T08:14:04.711Z,16.60
2018-02-17T08:15:04.671Z,16.20
2018-02-17T08:16:04.630Z,16.20
2018-02-17T08:17:04.596Z,15.90
2018-02-17T08:18:04.551Z,16.50
2018-02-17T08:19:04.514Z,16.80
2018-02-17T08:20:04.473Z,15.80
2018-02-17T08:21:04.428Z,16.00
2018-02-17T08:22:04.436Z,17.20
2018-02-17T08:23:04.372Z,16.80
2018-02-17T08:24:04.308Z,18.40
2018-02-17T08:25:04.266Z,17.30
2018-02-17T08:26:04.224Z,16.70
2018-02-17T08:27:04.183Z,16.30
2018-02-17T08:28:04.146Z,16.70
2018-02-17T08:29:04.113Z,16.00
2018-02-17T08:30:04.062Z,16.20
2018-02-17T08:31:04.031Z,15.80
2018-02-17T08:32:03.980Z,15.50
2018-02-17T08:33:03.945Z,15.60
2018-02-17T08:34:03.898Z,15.80
2018-02-17T08:35:03.864Z,16.10
2018-02-17T08:36:03.820Z,15.90
2018-02-17T08:37:03.790Z,16.20
2018-02-17T08:38:03.736Z,16.60
2018-02-17T08:39:03.726Z,15.90
2018-02-17T08:40:03.680Z,17.10
2018-02-17T08:41:03.614Z,16.50
2018-02-17T08:42:03.577Z,16.80
2018-02-17T08:43:03.532Z,16.30
2018-02-17T08:44:03.495Z,15.40
2018-02-17T08:45:03.457Z,15.90
2018-02-17T08:46:03.413Z,17.10
2018-02-17T08:47:03.372Z,16.20
2018-02-17T08:48:03.333Z,15.90
2018-02-17T08:49:03.298Z,15.80
2018-02-17T08:50:03.249Z,16.50
2018-02-17T08:51:03.221Z,16.00
2018-02-17T08:52:03.174Z,16.40
2018-02-17T08:53:03.128Z,16.40
2018-02-17T08:54:03.089Z,16.20
2018-02-17T08:55:03.048Z,15.60
2018-02-17T08:56:03.008Z,15.70
2018-02-17T08:57:02.969Z,15.50
2018-02-17T08:58:02.934Z,15.70
2018-02-17T08:59:02.887Z,15.00
2018-02-17T09:00:02.847Z,15.20
2018-02-17T09:01:02.807Z,17.00
2018-02-17T09:02:02.767Z,15.70
2018-02-17T09:03:02.730Z,15.50
2018-02-17T09:04:02.694Z,15.60
2018-02-17T09:05:02.649Z,14.90
2018-02-17T09:06:02.606Z,15.20
2018-02-17T09:07:02.571Z,15.40
2018-02-17T09:08:02.531Z,14.70
2018-02-17T09:09:02.503Z,14.60
2018-02-17T09:10:02.508Z,15.20
2018-02-17T09:11:02.415Z,15.00
2018-02-17T09:12:02.370Z,14.70
2018-02-17T09:13:02.330Z,15.00
2018-02-17T09:14:02.288Z,14.40
2018-02-17T09:15:02.248Z,14.00
2018-02-17T09:16:02.211Z,14.40
2018-02-17T09:17:02.174Z,14.70
2018-02-17T09:18:02.138Z,14.50
2018-02-17T09:19:02.091Z,15.40
2018-02-17T09:20:02.052Z,13.70
2018-02-17T09:21:02.010Z,14.30
2018-02-17T09:22:01.974Z,14.30
2018-02-17T09:23:01.948Z,13.00
2018-02-17T09:24:01.892Z,14.10
2018-02-17T09:25:01.856Z,13.90
2018-02-17T09:26:01.814Z,14.50
2018-02-17T09:27:01.775Z,13.10
2018-02-17T09:28:01.737Z,13.60
2018-02-17T09:29:01.697Z,14.50
2018-02-17T09:30:01.656Z,13.50
2018-02-17T09:31:01.616Z,13.80
2018-02-17T09:32:01.587Z,13.50
2018-02-17T09:33:01.539Z,14.40
2018-02-17T09:34:01.497Z,14.10
2018-02-17T09:35:01.463Z,13.50
2018-02-17T09:36:01.421Z,15.00
2018-02-17T09:37:01.381Z,14.60
2018-02-17T09:38:01.344Z,14.10
2018-02-17T09:39:01.303Z,13.70
2018-02-17T09:40:01.264Z,15.10
2018-02-17T09:41:01.232Z,14.00
2018-02-17T09:42:01.187Z,13.80
2018-02-17T09:43:01.148Z,14.00
2018-02-17T09:44:01.107Z,13.80
2018-02-17T09:45:01.073Z,14.50
2018-02-17T09:46:01.084Z,13.60
2018-02-17T09:47:00.994Z,13.40
2018-02-17T09:48:00.950Z,13.50
2018-02-17T09:49:00.914Z,13.80
2018-02-17T09:50:00.882Z,13.50
2018-02-17T09:51:00.834Z,13.50
2018-02-17T09:52:00.794Z,13.70
2018-02-17T09:53:00.756Z,13.80
2018-02-17T09:54:00.720Z,14.60
2018-02-17T09:55:00.678Z,13.50
2018-02-17T09:56:00.640Z,13.90
2018-02-17T09:57:00.641Z,14.40
2018-02-17T09:58:00.562Z,14.40
2018-02-17T09:59:00.522Z,13.30
2018-02-17T10:00:00.483Z,14.10
2018-02-17T10:01:00.450Z,12.10
2018-02-17T10:02:00.408Z,12.90
2018-02-17T10:03:00.371Z,13.40
2018-02-17T10:04:00.331Z,12.60
2018-02-17T10:05:00.291Z,12.80
2018-02-17T10:06:00.251Z,12.10
2018-02-17T10:07:00.212Z,13.00
2018-02-17T10:08:00.173Z,14.10
2018-02-17T10:09:00.144Z,12.80
2018-02-17T10:10:00.108Z,13.70
2018-02-17T10:11:00.058Z,12.50
2018-02-17T10:12:00.022Z,12.90
2018-02-17T10:12:59.984Z,12.40
2018-02-17T10:13:59.944Z,12.80
2018-02-17T10:14:59.907Z,12.90
2018-02-17T10:15:59.875Z,11.50
2018-02-17T10:16:59.834Z,12.20
2018-02-17T10:17:59.790Z,12.00
2018-02-17T10:18:59.752Z,12.50
2018-02-17T10:19:59.717Z,11.90
2018-02-17T10:20:59.680Z,11.20
2018-02-17T10:21:59.642Z,11.10
2018-02-17T10:22:59.607Z,12.30
2018-02-17T10:23:59.565Z,12.00
2018-02-17T10:24:59.528Z,11.40
2018-02-17T10:25:59.490Z,11.10
2018-02-17T10:26:59.455Z,10.80
2018-02-17T10:27:59.422Z,12.30
2018-02-17T10:28:59.379Z,11.10
2018-02-17T10:29:59.351Z,11.10
2018-02-17T10:30:59.304Z,11.20
2018-02-17T10:31:59.265Z,11.40
2018-02-17T10:32:59.228Z,10.70
2018-02-17T10:33:59.189Z,11.00
2018-02-17T10:34:59.156Z,11.20
2018-02-17T10:35:59.115Z,11.10
2018-02-17T10:36:59.079Z,11.10
2018-02-17T10:37:59.041Z,11.00
2018-02-17T10:38:59.004Z,11.60
2018-02-17T10:39:58.981Z,10.50
2018-02-17T10:40:58.932Z,11.80
2018-02-17T10:41:58.893Z,10.80
2018-02-17T10:42:58.857Z,11.20
2018-02-17T10:43:58.821Z,12.50
2018-02-17T10:44:58.787Z,10.70
2018-02-17T10:45:58.747Z,12.00
2018-02-17T10:46:58.713Z,11.00
2018-02-17T10:47:58.677Z,11.30
2018-02-17T10:48:58.651Z,11.60
2018-02-17T10:49:58.604Z,11.30
2018-02-17T10:50:58.568Z,11.90
2018-02-17T10:51:58.537Z,12.40
2018-02-17T10:52:58.504Z,10.90
2018-02-17T10:53:58.466Z,11.50
2018-02-17T10:54:58.434Z,11.50
2018-02-17T10:55:58.401Z,13.20
2018-02-17T10:56:58.362Z,11.20
2018-02-17T10:57:58.355Z,11.40
2018-02-17T10:58:58.290Z,12.20
2018-02-17T10:59:58.256Z,11.00
2018-02-17T11:00:58.225Z,11.40
2018-02-17T11:01:58.215Z,11.20
2018-02-17T11:02:58.150Z,11.60
2018-02-17T11:03:58.118Z,10.90
2018-02-17T11:04:58.098Z,11.10
2018-02-17T11:05:58.048Z,11.40
2018-02-17T11:06:58.017Z,11.40
2018-02-17T11:07:57.977Z,11.80
2018-02-17T11:08:57.946Z,11.10
2018-02-17T11:09:57.910Z,10.50
2018-02-17T11:10:57.878Z,10.90
2018-02-17T11:11:57.846Z,11.10
2018-02-17T11:12:57.806Z,12.00
2018-02-17T11:13:57.776Z,11.20
2018-02-17T11:14:57.742Z,10.90
2018-02-17T11:15:57.707Z,11.00
2018-02-17T11:16:57.673Z,10.90
2018-02-17T11:17:57.645Z,11.50
2018-02-17T11:18:57.607Z,10.60
2018-02-17T11:19:57.569Z,11.60
2018-02-17T11:20:57.538Z,11.40
2018-02-17T11:21:57.508Z,11.10
2018-02-17T11:22:57.528Z,11.70
2018-02-17T11:23:57.438Z,11.60
2018-02-17T11:24:57.408Z,10.90
2018-02-17T11:25:57.372Z,10.70
2018-02-17T11:26:57.346Z,12.60
2018-02-17T11:27:57.312Z,11.70
2018-02-17T11:28:57.280Z,11.90
2018-02-17T11:29:57.244Z,11.40
2018-02-17T11:30:57.211Z,10.80
2018-02-17T11:31:57.181Z,11.80
2018-02-17T11:32:57.158Z,12.60
2018-02-17T11:33:57.152Z,11.30
2018-02-17T11:34:57.085Z,11.90
2018-02-17T11:35:57.050Z,12.30
2018-02-17T11:36:57.055Z,12.30
2018-02-17T11:37:56.991Z,11.70
2018-02-17T11:38:56.968Z,11.80
2018-02-17T11:39:56.927Z,11.70
2018-02-17T11:40:56.890Z,11.40
2018-02-17T11:41:56.874Z,11.60
2018-02-17T11:42:56.852Z,11.50
2018-02-17T11:43:56.797Z,11.30
2018-02-17T11:44:56.767Z,12.00
2018-02-17T11:45:56.736Z,12.10
2018-02-17T11:46:56.703Z,11.80
2018-02-17T11:47:56.671Z,11.30
2018-02-17T11:48:56.645Z,11.90
2018-02-17T11:49:56.665Z,10.90
2018-02-17T11:50:56.627Z,11.30
2018-02-17T11:51:56.559Z,11.20
2018-02-17T11:52:56.532Z,10.50
2018-02-17T11:53:56.488Z,10.50
2018-02-17T11:54:56.463Z,10.20
2018-02-17T11:55:56.435Z,9.40
2018-02-17T11:56:56.405Z,10.70
2018-02-17T11:57:56.408Z,10.50
2018-02-17T11:58:56.346Z,11.40
2018-02-17T11:59:56.328Z,10.50
2018-02-17T12:00:56.301Z,10.60
2018-02-17T12:01:56.265Z,10.90
2018-02-17T12:02:56.234Z,11.00
2018-02-17T12:03:56.208Z,10.70
2018-02-17T12:04:56.184Z,11.10
2018-02-17T12:05:56.158Z,10.50
2018-02-17T12:06:56.132Z,10.70
2018-02-17T12:07:56.111Z,11.60
2018-02-17T12:08:56.141Z,12.30
2018-02-17T12:09:56.326Z,11.70
2018-02-17T12:10:56.039Z,10.90
2018-02-17T12:11:56.013Z,10.50
2018-02-17T12:12:55.993Z,11.20
2018-02-17T12:13:55.966Z,10.80
2018-02-17T12:14:55.948Z,10.90
2018-02-17T12:15:55.919Z,11.10
2018-02-17T12:16:55.939Z,11.70
2018-02-17T12:17:55.876Z,11.10
2018-02-17T12:18:55.855Z,10.80
2018-02-17T12:19:55.837Z,10.90
2018-02-17T12:20:55.807Z,11.00
2018-02-17T12:21:55.785Z,10.70
2018-02-17T12:22:55.761Z,10.40
2018-02-17T12:23:55.757Z,11.30
2018-02-17T12:24:55.713Z,10.30
2018-02-17T12:25:55.690Z,11.10
2018-02-17T12:26:55.665Z,11.30
2018-02-17T12:27:55.638Z,11.50
2018-02-17T12:28:55.615Z,11.40
2018-02-17T12:29:55.588Z,10.90
2018-02-17T12:30:55.562Z,11.30
2018-02-17T12:31:55.534Z,12.00
2018-02-17T12:32:55.503Z,11.80
2018-02-17T12:33:55.476Z,12.40
2018-02-17T12:34:55.447Z,11.60
2018-02-17T12:35:55.422Z,11.80
2018-02-17T12:36:55.391Z,11.80
2018-02-17T12:37:55.415Z,11.10
2018-02-17T12:38:55.330Z,12.30
2018-02-17T12:39:55.336Z,11.40
2018-02-17T12:40:55.274Z,11.80
2018-02-17T12:41:55.253Z,11.70
2018-02-17T12:42:55.211Z,11.50
2018-02-17T12:43:55.186Z,11.40
2018-02-17T12:44:55.159Z,12.20
2018-02-17T12:45:55.127Z,11.60
2018-02-17T12:46:55.097Z,11.40
2018-02-17T12:47:55.062Z,12.10
2018-02-17T12:48:55.035Z,11.10
2018-02-17T12:49:55.027Z,11.90
2018-02-17T12:50:54.993Z,11.90
2018-02-17T12:51:54.945Z,11.90